Time;durP1;ratioP1;P1;durP2;ratioP2;P2;SDS_P1;SDS_P2;PMS_P1;PMS_P2;Temp;Humidity;BMP_temperature;BMP_pressure;BME280_temperature;BME280_humidity;BME280_pressure;Samples;Min_cycle;Max_cycle;Signal;HPM_P1;HPM_P2
2023/06/14 00:03:24;;;;;;;2.08;1.60;;;;;;;;;;12876035;23;20067;-83
2023/06/14 00:08:29;;;;;;;1.85;1.63;;;;;;;;;;12877154;23;20344;-83
2023/06/14 00:13:33;;;;;;;2.85;1.75;;;;;;;;;;12901871;23;20032;-83
2023/06/14 00:18:36;;;;;;;3.65;1.92;;;;;;;;;;12874762;23;20024;-83
2023/06/14 00:23:41;;;;;;;2.45;1.70;;;;;;;;;;12908510;23;20048;-83
2023/06/14 00:28:44;;;;;;;4.63;2.15;;;;;;;;;;12907966;22;20673;-83
2023/06/14 00:33:47;;;;;;;2.33;1.73;;;;;;;;;;12907685;23;20032;-82
2023/06/14 00:38:52;;;;;;;3.75;1.88;;;;;;;;;;12874254;23;20020;-83
2023/06/14 00:43:56;;;;;;;2.08;1.88;;;;;;;;;;12907020;23;20024;-83
2023/06/14 00:49:01;;;;;;;2.15;1.77;;;;;;;;;;12874701;23;20467;-83
2023/06/14 00:54:06;;;;;;;3.42;2.25;;;;;;;;;;12878181;23;20110;-82
2023/06/14 00:59:11;;;;;;;3.22;2.35;;;;;;;;;;12878208;23;20401;-83
2023/06/14 01:04:14;;;;;;;3.80;1.92;;;;;;;;;;12879303;23;20750;-82
2023/06/14 01:09:26;;;;;;;1.95;1.60;;;;;;;;;;12877600;23;20012;-82
2023/06/14 01:14:31;;;;;;;2.35;1.70;;;;;;;;;;12878515;23;20052;-83
2023/06/14 01:19:35;;;;;;;2.95;1.90;;;;;;;;;;12909499;22;20031;-82
2023/06/14 01:24:44;;;;;;;2.65;2.08;;;;;;;;;;12891632;22;20024;-81
2023/06/14 01:29:48;;;;;;;2.88;2.15;;;;;;;;;;12890412;23;20437;-81
2023/06/14 01:34:51;;;;;;;4.68;2.22;;;;;;;;;;12884540;22;20031;-81
2023/06/14 01:39:57;;;;;;;2.72;1.83;;;;;;;;;;12893227;23;20020;-81
2023/06/14 01:45:01;;;;;;;2.07;1.80;;;;;;;;;;12890130;22;20020;-81
2023/06/14 01:50:05;;;;;;;3.17;1.75;;;;;;;;;;12891906;23;20016;-81
2023/06/14 01:55:11;;;;;;;1.90;1.63;;;;;;;;;;12890678;22;20359;-81
2023/06/14 02:00:16;;;;;;;1.70;1.60;;;;;;;;;;12892550;23;20077;-81
2023/06/14 02:05:19;;;;;;;2.58;2.10;;;;;;;;;;12918315;22;20275;-81
2023/06/14 02:10:25;;;;;;;2.35;1.80;;;;;;;;;;12892546;23;20035;-80
2023/06/14 02:15:33;;;;;;;2.78;1.77;;;;;;;;;;12888960;22;20474;-81
2023/06/14 02:20:37;;;;;;;2.70;1.80;;;;;;;;;;12892471;23;20079;-81
2023/06/14 02:25:42;;;;;;;2.50;1.98;;;;;;;;;;12890711;22;20024;-81
2023/06/14 02:30:46;;;;;;;3.63;2.10;;;;;;;;;;12891278;23;20082;-81
2023/06/14 05:38:47;;;;;;;1.23;0.90;;;;;;;;;;12746339;23;20014;-89
2023/06/14 05:43:50;;;;;;;3.80;1.17;;;;;;;;;;12701819;23;20025;-90
2023/06/14 05:48:56;;;;;;;2.17;1.30;;;;;;;;;;12700070;23;20017;-87
2023/06/14 05:54:01;;;;;;;1.88;1.40;;;;;;;;;;12699752;23;20045;-87
2023/06/14 05:59:04;;;;;;;2.05;1.30;;;;;;;;;;12699279;23;20045;-87
2023/06/14 06:04:08;;;;;;;2.75;1.65;;;;;;;;;;12724246;23;20346;-88
2023/06/14 06:09:14;;;;;;;2.35;1.58;;;;;;;;;;12699112;23;20407;-87
2023/06/14 06:14:17;;;;;;;2.65;1.17;;;;;;;;;;12724540;23;20104;-87
2023/06/14 06:19:21;;;;;;;1.58;1.15;;;;;;;;;;12698262;23;20360;-88
2023/06/14 06:24:26;;;;;;;3.60;1.80;;;;;;;;;;12699150;23;20568;-89
2023/06/14 06:29:30;;;;;;;2.30;1.45;;;;;;;;;;12701150;23;20021;-87
2023/06/14 06:34:33;;;;;;;1.73;1.27;;;;;;;;;;12699528;23;20049;-87
2023/06/14 06:39:38;;;;;;;1.17;1.05;;;;;;;;;;12723224;23;20518;-87
2023/06/14 06:44:42;;;;;;;1.58;1.23;;;;;;;;;;12724961;23;20025;-88
2023/06/14 06:49:45;;;;;;;2.25;1.45;;;;;;;;;;12696128;23;20049;-86
2023/06/14 06:54:54;;;;;;;1.60;1.40;;;;;;;;;;12721827;23;20353;-87
2023/06/14 06:59:59;;;;;;;1.90;1.20;;;;;;;;;;12722406;23;20512;-87
2023/06/14 07:05:02;;;;;;;1.17;1.00;;;;;;;;;;12697776;23;20108;-87
2023/06/14 07:10:08;;;;;;;1.70;1.13;;;;;;;;;;12698070;23;20512;-86
2023/06/14 07:15:12;;;;;;;1.52;0.95;;;;;;;;;;12718030;23;20029;-87
2023/06/14 07:20:16;;;;;;;1.00;0.90;;;;;;;;;;12697331;23;20017;-87
2023/06/14 07:25:22;;;;;;;1.70;1.30;;;;;;;;;;12696228;23;20030;-86
2023/06/14 07:30:26;;;;;;;;;;;;;;;;;;12723888;23;20100;-86
2023/06/14 07:35:30;;;;;;;1.10;0.80;;;;;;;;;;12696767;23;19929;-88
2023/06/14 07:40:36;;;;;;;1.80;0.93;;;;;;;;;;12697939;23;20033;-87
2023/06/14 07:45:39;;;;;;;;;;;;;;;;;;12696239;23;20349;-88
2023/06/14 07:50:46;;;;;;;;;;;;;;;;;;12722334;23;19921;-88
2023/06/14 07:55:50;;;;;;;;;;;;;;;;;;12695983;23;19975;-86
2023/06/14 08:00:55;;;;;;;;;;;;;;;;;;12696253;23;20388;-87
2023/06/14 08:05:59;;;;;;;;;;;;;;;;;;12694931;23;19916;-87
2023/06/14 08:11:03;;;;;;;;;;;;;;;;;;12696835;23;19920;-86
2023/06/14 08:16:07;;;;;;;;;;;;;;;;;;12694661;23;19917;-87
2023/06/14 08:21:12;;;;;;;;;;;;;;;;;;12720068;23;19921;-87
2023/06/14 08:26:17;;;;;;;;;;;;;;;;;;12722974;23;20324;-88
2023/06/14 08:36:44;;;;;;;;;;;;;;;;;;12806140;23;19915;-81
2023/06/14 08:41:49;;;;;;;;;;;;;;;;;;12817542;23;19918;-81
2023/06/14 08:46:53;;;;;;;;;;;;;;;;;;12817072;23;19924;-81
2023/06/14 08:51:58;;;;;;;;;;;;;;;;;;12842988;23;19915;-81
2023/06/14 08:57:04;;;;;;;;;;;;;;;;;;12838082;23;19916;-81
2023/06/14 09:02:07;;;;;;;;;;;;;;;;;;12819285;23;20335;-81
2023/06/14 09:07:14;;;;;;;;;;;;;;;;;;12837255;23;19927;-81
2023/06/14 09:12:19;;;;;;;;;;;;;;;;;;12814102;23;19915;-81
2023/06/14 09:17:23;;;;;;;;;;;;;;;;;;12855473;23;19923;-80
2023/06/14 09:22:30;;;;;;;;;;;;;;;;;;12820494;23;20496;-81
2023/06/14 09:27:35;;;;;;;;;;;;;;;;;;12854303;23;20313;-81
2023/06/14 09:32:39;;;;;;;;;;;;;;;;;;12843108;23;19915;-81
2023/06/14 09:37:42;;;;;;;;;;;;;;;;;;12817164;23;19920;-81
2023/06/14 09:42:47;;;;;;;;;;;;;;;;;;12817792;23;19916;-81
2023/06/14 09:47:51;;;;;;;;;;;;;;;;;;12841406;23;19916;-81
2023/06/14 09:53:02;;;;;;;;;;;;;;;;;;12815855;23;19916;-81
2023/06/14 09:58:07;;;;;;;;;;;;;;;;;;12817978;23;20370;-81
2023/06/14 10:03:13;;;;;;;;;;;;;;;;;;12818020;23;20340;-81
2023/06/14 10:08:18;;;;;;;;;;;;;;;;;;12816100;23;19974;-81
2023/06/14 10:13:22;;;;;;;;;;;;;;;;;;12844564;23;19950;-81
2023/06/14 10:18:29;;;;;;;;;;;;;;;;;;12841434;23;19942;-81
2023/06/14 10:23:33;;;;;;;;;;;;;;;;;;12841775;23;19935;-81
2023/06/14 10:28:39;;;;;;;;;;;;;;;;;;12843423;23;20335;-81
2023/06/14 10:33:50;;;;;;;;;;;;;;;;;;12841691;23;20618;-82
2023/06/14 10:39:00;;;;;;;;;;;;;;;;;;12840887;23;19920;-83
2023/06/14 10:44:22;;;;;;;;;;;;;;;;;;12816239;23;19951;-82
2023/06/14 10:49:40;;;;;;;;;;;;;;;;;;12815016;23;19959;-82
2023/06/14 10:55:03;;;;;;;;;;;;;;;;;;12816205;23;19920;-83
2023/06/14 11:00:22;;;;;;;;;;;;;;;;;;12842147;23;19922;-83
2023/06/14 11:05:27;;;;;;;;;;;;;;;;;;12840344;23;19943;-83
2023/06/14 11:10:36;;;;;;;;;;;;;;;;;;12841324;23;19924;-82
2023/06/14 11:15:42;;;;;;;;;;;;;;;;;;12859429;23;19939;-83
2023/06/14 11:20:52;;;;;;;;;;;;;;;;;;12815767;23;19916;-82
2023/06/14 11:26:14;;;;;;;;;;;;;;;;;;12813160;23;19930;-82
2023/06/14 11:31:46;;;;;;;;;;;;;;;;;;12839982;23;19916;-81
2023/06/14 11:37:02;;;;;;;;;;;;;;;;;;12796572;23;20582;-82
2023/06/14 11:42:26;;;;;;;;;;;;;;;;;;12812333;23;19916;-83
2023/06/14 11:47:38;;;;;;;;;;;;;;;;;;12812296;23;19990;-83
2023/06/14 11:58:56;;;;;;;;;;;;;;;;;;12836276;23;19923;-82
2023/06/14 12:04:08;;;;;;;;;;;;;;;;;;12812786;23;19931;-83
2023/06/14 12:09:29;;;;;;;;;;;;;;;;;;12812451;23;20379;-83
2023/06/14 12:14:35;;;;;;;;;;;;;;;;;;12838174;23;19931;-81
2023/06/14 12:19:47;;;;;;;;;;;;;;;;;;12838469;23;20476;-83
2023/06/14 12:24:50;;;;;;;;;;;;;;;;;;12837189;23;19916;-82
2023/06/14 12:30:16;;;;;;;;;;;;;;;;;;12838965;23;20622;-83
2023/06/14 12:35:45;;;;;;;;;;;;;;;;;;12809917;23;19927;-82
2023/06/14 12:41:03;;;;;;;;;;;;;;;;;;12794305;23;20439;-83
2023/06/14 12:46:10;;;;;;;;;;;;;;;;;;12844832;23;19919;-83
2023/06/14 12:51:13;;;;;;;;;;;;;;;;;;12869211;23;19920;-83
2023/06/14 12:56:16;;;;;;;;;;;;;;;;;;12849270;23;20462;-84
2023/06/14 13:01:24;;;;;;;;;;;;;;;;;;12852636;23;19968;-82
2023/06/14 13:06:29;;;;;;;;;;;;;;;;;;12828909;23;20236;-82
2023/06/14 13:11:32;;;;;;;;;;;;;;;;;;12853138;23;19915;-82
2023/06/14 13:16:37;;;;;;;;;;;;;;;;;;12831438;23;19916;-82
2023/06/14 13:21:40;;;;;;;;;;;;;;;;;;12849821;23;20520;-82
2023/06/14 13:26:43;;;;;;;;;;;;;;;;;;12823373;23;19916;-82
2023/06/14 13:31:48;;;;;;;;;;;;;;;;;;12825742;23;20255;-83
2023/06/14 13:36:51;;;;;;;;;;;;;;;;;;12846203;23;19916;-82
2023/06/14 13:41:54;;;;;;;;;;;;;;;;;;12817110;23;19920;-81
2023/06/14 13:46:59;;;;;;;;;;;;;;;;;;12815383;23;19947;-81
2023/06/14 13:52:02;;;;;;;;;;;;;;;;;;12817126;23;19915;-83
2023/06/14 13:57:06;;;;;;;;;;;;;;;;;;12854465;23;19915;-83
2023/06/14 14:02:11;;;;;;;;;;;;;;;;;;12855644;23;20402;-83
2023/06/14 14:07:14;;;;;;;;;;;;;;;;;;12840439;23;19920;-82
2023/06/14 14:12:18;;;;;;;;;;;;;;;;;;12816218;23;19995;-83
2023/06/14 14:17:23;;;;;;;;;;;;;;;;;;12843595;23;19920;-83
2023/06/14 14:22:26;;;;;;;;;;;;;;;;;;12817028;23;20339;-82
2023/06/14 14:27:29;;;;;;;;;;;;;;;;;;12853709;23;19916;-83
2023/06/14 14:32:33;;;;;;;;;;;;;;;;;;12841821;23;19939;-82
2023/06/14 14:37:37;;;;;;;;;;;;;;;;;;12816416;23;19916;-82
2023/06/14 14:42:40;;;;;;;;;;;;;;;;;;12816355;23;19915;-82
2023/06/14 14:47:48;;;;;;;;;;;;;;;;;;12852587;23;19974;-83
2023/06/14 14:52:53;;;;;;;;;;;;;;;;;;12816846;23;19916;-83
2023/06/14 14:57:56;;;;;;;;;;;;;;;;;;12842373;23;19970;-83
2023/06/14 15:03:00;;;;;;;;;;;;;;;;;;12852532;23;19916;-82
2023/06/14 15:08:05;;;;;;;;;;;;;;;;;;12844185;23;19951;-82
2023/06/14 15:13:08;;;;;;;;;;;;;;;;;;12842641;23;19970;-83
2023/06/14 15:18:13;;;;;;;;;;;;;;;;;;12842363;23;20233;-82
2023/06/14 15:23:19;;;;;;;;;;;;;;;;;;12842168;23;19916;-83
2023/06/14 15:28:24;;;;;;;;;;;;;;;;;;12841888;23;19915;-82
2023/06/14 15:33:28;;;;;;;;;;;;;;;;;;12814237;23;19916;-82
2023/06/14 15:38:32;;;;;;;;;;;;;;;;;;12813848;23;19939;-82
2023/06/14 15:43:35;;;;;;;;;;;;;;;;;;12814387;23;19919;-82
2023/06/14 15:48:40;;;;;;;;;;;;;;;;;;12840492;23;19943;-82
2023/06/14 15:53:43;;;;;;;;;;;;;;;;;;12813377;23;19939;-82
2023/06/14 15:58:47;;;;;;;;;;;;;;;;;;12838252;23;20338;-82
2023/06/14 16:03:52;;;;;;;;;;;;;;;;;;12837187;23;19915;-83
2023/06/14 16:08:55;;;;;;;;;;;;;;;;;;12837820;23;19962;-82
2023/06/14 16:13:58;;;;;;;;;;;;;;;;;;12838043;23;19995;-82
2023/06/14 16:19:03;;;;;;;;;;;;;;;;;;12819997;23;19927;-83
2023/06/14 16:24:08;;;;;;;;;;;;;;;;;;12825434;23;19920;-82
2023/06/14 16:29:11;;;;;;;;;;;;;;;;;;12813421;23;19916;-82
2023/06/14 16:34:16;;;;;;;;;;;;;;;;;;12839809;23;19923;-82
2023/06/14 16:39:19;;;;;;;;;;;;;;;;;;12843289;23;19935;-83
2023/06/14 16:44:22;;;;;;;;;;;;;;;;;;12839969;23;19966;-82
2023/06/14 16:49:27;;;;;;;;;;;;;;;;;;12841964;23;19915;-83
2023/06/14 16:54:30;;;;;;;;;;;;;;;;;;12812921;23;20347;-82
2023/06/14 16:59:33;;;;;;;;;;;;;;;;;;12838308;23;19931;-82
2023/06/14 17:04:38;;;;;;;;;;;;;;;;;;12838145;23;19926;-82
2023/06/14 17:09:42;;;;;;;;;;;;;;;;;;12838912;23;19916;-82
2023/06/14 17:14:45;;;;;;;;;;;;;;;;;;12838318;23;19962;-82
2023/06/14 17:19:52;;;;;;;;;;;;;;;;;;12839621;23;19915;-83
2023/06/14 17:24:55;;;;;;;;;;;;;;;;;;12837346;23;19916;-83
2023/06/14 17:29:58;;;;;;;;;;;;;;;;;;12812011;23;20058;-83
2023/06/14 17:35:04;;;;;;;;;;;;;;;;;;12840955;23;19922;-83
2023/06/14 17:40:08;;;;;;;;;;;;;;;;;;12817693;23;19920;-83
2023/06/14 17:45:11;;;;;;;;;;;;;;;;;;12815109;23;20357;-84
2023/06/14 17:50:20;;;;;;;;;;;;;;;;;;12843202;23;19978;-83
2023/06/14 17:55:27;;;;;;;;;;;;;;;;;;12816515;23;19943;-82
2023/06/14 18:00:31;;;;;;;;;;;;;;;;;;12862119;23;19916;-83
2023/06/14 18:05:41;;;;;;;;;;;;;;;;;;12840990;23;19916;-83
2023/06/14 18:10:44;;;;;;;;;;;;;;;;;;12818130;23;19923;-83
2023/06/14 18:15:47;;;;;;;;;;;;;;;;;;12842188;23;19927;-83
2023/06/14 18:20:52;;;;;;;;;;;;;;;;;;12842655;23;19923;-83
2023/06/14 18:25:55;;;;;;;;;;;;;;;;;;12813215;23;19916;-84
2023/06/14 18:30:59;;;;;;;;;;;;;;;;;;12858552;23;19974;-84
2023/06/14 18:36:04;;;;;;;;;;;;;;;;;;12814970;23;19966;-83
2023/06/14 18:41:07;;;;;;;;;;;;;;;;;;12814880;23;19940;-83
2023/06/14 18:46:10;;;;;;;;;;;;;;;;;;12815106;23;19916;-84
2023/06/14 18:51:15;;;;;;;;;;;;;;;;;;12858371;23;19916;-83
2023/06/14 18:56:18;;;;;;;;;;;;;;;;;;12815481;23;19920;-83
2023/06/14 19:01:21;;;;;;;;;;;;;;;;;;12815104;23;19931;-83
2023/06/14 19:06:25;;;;;;;;;;;;;;;;;;12815341;23;20351;-83
2023/06/14 19:11:29;;;;;;;;;;;;;;;;;;12816134;23;19915;-83
2023/06/14 19:16:32;;;;;;;;;;;;;;;;;;12814831;23;19936;-83
2023/06/14 19:21:36;;;;;;;;;;;;;;;;;;12840892;23;20291;-83
2023/06/14 19:26:40;;;;;;;;;;;;;;;;;;12839746;23;19916;-83
2023/06/14 19:31:43;;;;;;;;;;;;;;;;;;12842057;23;19939;-83
2023/06/14 19:36:47;;;;;;;;;;;;;;;;;;12838910;23;20291;-83
2023/06/14 19:41:50;;;;;;;;;;;;;;;;;;12854774;23;19915;-83
2023/06/14 19:46:54;;;;;;;;;;;;;;;;;;12837786;23;19974;-83
2023/06/14 19:51:58;;;;;;;;;;;;;;;;;;12838882;23;19947;-82
2023/06/14 19:57:02;;;;;;;;;;;;;;;;;;12837474;23;19943;-83
2023/06/14 20:02:05;;;;;;;;;;;;;;;;;;12813138;23;20205;-83
2023/06/14 20:07:10;;;;;;;;;;;;;;;;;;12862710;23;19919;-83
2023/06/14 20:12:14;;;;;;;;;;;;;;;;;;12824231;23;19916;-83
2023/06/14 20:17:20;;;;;;;;;;;;;;;;;;12838615;23;19916;-82
2023/06/14 20:22:25;;;;;;;;;;;;;;;;;;12813233;23;19916;-83
2023/06/14 20:27:28;;;;;;;;;;;;;;;;;;12812023;23;19944;-83
2023/06/14 20:49:08;;;;;;;;;;;;;;;;;;12800162;22;19908;-89
2023/06/14 20:54:11;;;;;;;;;;;;;;;;;;12821928;23;19982;-88
2023/06/14 20:59:14;;;;;;;;;;;;;;;;;;12900911;23;19919;-87
2023/06/14 21:04:21;;;;;;;;;;;;;;;;;;12882510;23;19915;-88
2023/06/14 21:09:24;;;;;;;;;;;;;;;;;;12884950;23;19916;-88
2023/06/14 21:14:28;;;;;;;;;;;;;;;;;;12886933;23;19915;-88
2023/06/14 21:19:32;;;;;;;;;;;;;;;;;;12885822;23;19916;-88
2023/06/14 21:24:35;;;;;;;;;;;;;;;;;;12913306;23;19915;-88
2023/06/14 21:29:39;;;;;;;;;;;;;;;;;;12913425;22;19915;-88
2023/06/14 21:34:45;;;;;;;;;;;;;;;;;;12911210;23;19974;-88
2023/06/14 21:39:48;;;;;;;;;;;;;;;;;;12910924;23;19919;-88
2023/06/14 21:44:55;;;;;;;;;;;;;;;;;;12913027;22;19923;-88
2023/06/14 21:49:59;;;;;;;;;;;;;;;;;;12909629;23;19923;-87
2023/06/14 21:55:03;;;;;;;;;;;;;;;;;;12911979;22;19922;-88
2023/06/14 22:00:09;;;;;;;;;;;;;;;;;;12886006;23;19982;-87
2023/06/14 22:05:14;;;;;;;;;;;;;;;;;;12883618;22;19916;-86
2023/06/14 22:10:19;;;;;;;;;;;;;;;;;;12885531;23;19962;-88
2023/06/14 22:15:22;;;;;;;;;;;;;;;;;;12909987;22;20351;-88
2023/06/14 22:20:28;;;;;;;;;;;;;;;;;;12885582;23;19919;-88
2023/06/14 22:25:31;;;;;;;;;;;;;;;;;;12883102;22;19923;-88
2023/06/14 22:30:36;;;;;;;;;;;;;;;;;;12910664;23;19950;-88
2023/06/14 22:35:40;;;;;;;;;;;;;;;;;;12911012;22;19915;-88
2023/06/14 22:40:44;;;;;;;;;;;;;;;;;;12883831;23;19922;-87
2023/06/14 22:45:51;;;;;;;;;;;;;;;;;;12883307;22;19916;-88
2023/06/14 22:50:55;;;;;;;;;;;;;;;;;;12911392;23;20541;-88
2023/06/14 22:55:59;;;;;;;;;;;;;;;;;;12883703;22;19916;-88
2023/06/14 23:01:02;;;;;;;;;;;;;;;;;;12883724;23;20327;-88
2023/06/14 23:06:08;;;;;;;;;;;;;;;;;;12883550;22;20240;-88
2023/06/14 23:11:12;;;;;;;;;;;;;;;;;;12883623;23;19923;-89
2023/06/14 23:16:17;;;;;;;;;;;;;;;;;;12910029;22;19930;-87
2023/06/14 23:21:21;;;;;;;;;;;;;;;;;;12884049;23;19939;-88
2023/06/14 23:26:28;;;;;;;;;;;;;;;;;;12883471;22;19923;-88
2023/06/14 23:31:33;;;;;;;;;;;;;;;;;;12884319;23;19915;-89
2023/06/14 23:36:37;;;;;;;;;;;;;;;;;;12881576;22;19919;-88
2023/06/14 23:41:41;;;;;;;;;;;;;;;;;;12911662;23;19916;-87
2023/06/14 23:46:44;;;;;;;;;;;;;;;;;;12909940;22;20458;-88
2023/06/14 23:51:50;;;;;;;;;;;;;;;;;;12911114;23;19983;-88
2023/06/14 23:56:56;;;;;;;;;;;;;;;;;;12882915;22;19961;-89
